sensor_id;sensor_type;location;lat;lon;timestamp;pressure;altitude;pressure_sealevel;temperature;humidity
9289;BME280;4683;50.864;12.086;2024-02-16T00:02:05;99033.16;;;10.88;100.00
9289;BME280;4683;50.864;12.086;2024-02-16T00:04:33;99034.44;;;10.92;100.00
9289;BME280;4683;50.864;12.086;2024-02-16T00:07:02;99039.72;;;10.92;100.00
9289;BME280;4683;50.864;12.086;2024-02-16T00:09:32;99026.78;;;10.98;100.00
9289;BME280;4683;50.864;12.086;2024-02-16T00:12:01;99026.78;;;10.98;100.00
9289;BME280;4683;50.864;12.086;2024-02-16T00:14:28;99023.78;;;11.01;100.00
9289;BME280;4683;50.864;12.086;2024-02-16T00:16:57;99017.31;;;11.03;100.00
9289;BME280;4683;50.864;12.086;2024-02-16T00:19:26;99023.44;;;11.04;100.00
9289;BME280;4683;50.864;12.086;2024-02-16T00:21:55;99030.50;;;11.03;100.00
9289;BME280;4683;50.864;12.086;2024-02-16T00:24:25;99024.84;;;11.06;100.00
9289;BME280;4683;50.864;12.086;2024-02-16T00:26:55;99025.31;;;11.10;100.00
9289;BME280;4683;50.864;12.086;2024-02-16T00:29:24;99023.94;;;11.14;100.00
9289;BME280;4683;50.864;12.086;2024-02-16T00:31:53;99020.75;;;11.18;100.00
9289;BME280;4683;50.864;12.086;2024-02-16T00:34:22;99023.84;;;11.22;100.00
9289;BME280;4683;50.864;12.086;2024-02-16T00:36:51;99017.34;;;11.25;100.00
9289;BME280;4683;50.864;12.086;2024-02-16T00:39:20;99015.38;;;11.27;100.00
9289;BME280;4683;50.864;12.086;2024-02-16T00:41:49;99023.19;;;11.20;100.00
9289;BME280;4683;50.864;12.086;2024-02-16T00:44:19;99024.00;;;11.21;100.00
9289;BME280;4683;50.864;12.086;2024-02-16T00:46:48;99014.09;;;11.23;100.00
9289;BME280;4683;50.864;12.086;2024-02-16T00:49:16;99016.53;;;11.24;100.00
9289;BME280;4683;50.864;12.086;2024-02-16T00:51:44;99017.91;;;11.20;100.00
9289;BME280;4683;50.864;12.086;2024-02-16T00:54:13;99019.53;;;11.21;100.00
9289;BME280;4683;50.864;12.086;2024-02-16T00:56:41;99019.38;;;11.23;100.00
9289;BME280;4683;50.864;12.086;2024-02-16T00:59:09;99025.09;;;11.26;100.00
9289;BME280;4683;50.864;12.086;2024-02-16T01:01:40;99034.00;;;11.25;100.00
9289;BME280;4683;50.864;12.086;2024-02-16T01:04:10;99025.28;;;11.25;100.00
9289;BME280;4683;50.864;12.086;2024-02-16T01:06:38;99026.47;;;11.22;100.00
9289;BME280;4683;50.864;12.086;2024-02-16T01:09:07;99027.03;;;11.17;100.00
9289;BME280;4683;50.864;12.086;2024-02-16T01:11:38;99027.03;;;11.17;100.00
9289;BME280;4683;50.864;12.086;2024-02-16T01:14:09;99023.94;;;11.14;100.00
9289;BME280;4683;50.864;12.086;2024-02-16T01:16:41;99022.94;;;11.15;100.00
9289;BME280;4683;50.864;12.086;2024-02-16T01:19:10;99023.28;;;11.12;100.00
9289;BME280;4683;50.864;12.086;2024-02-16T01:21:39;99022.94;;;11.15;100.00
9289;BME280;4683;50.864;12.086;2024-02-16T01:24:07;99019.28;;;11.16;100.00
9289;BME280;4683;50.864;12.086;2024-02-16T01:26:36;99020.09;;;11.16;100.00
9289;BME280;4683;50.864;12.086;2024-02-16T01:29:05;99019.94;;;11.18;100.00
9289;BME280;4683;50.864;12.086;2024-02-16T01:31:33;99026.03;;;11.18;100.00
9289;BME280;4683;50.864;12.086;2024-02-16T01:34:05;99030.31;;;11.20;100.00
9289;BME280;4683;50.864;12.086;2024-02-16T01:36:33;99033.41;;;11.23;100.00
9289;BME280;4683;50.864;12.086;2024-02-16T01:39:06;99028.56;;;11.27;100.00
9289;BME280;4683;50.864;12.086;2024-02-16T01:41:38;99033.66;;;11.28;100.00
9289;BME280;4683;50.864;12.086;2024-02-16T01:44:07;99032.28;;;11.32;100.00
9289;BME280;4683;50.864;12.086;2024-02-16T01:46:36;99027.00;;;11.32;100.00
9289;BME280;4683;50.864;12.086;2024-02-16T01:49:07;99024.72;;;11.29;100.00
9289;BME280;4683;50.864;12.086;2024-02-16T01:51:36;99022.06;;;11.29;100.00
9289;BME280;4683;50.864;12.086;2024-02-16T01:55:01;99014.72;;;11.25;100.00
9289;BME280;4683;50.864;12.086;2024-02-16T01:57:32;99021.31;;;11.35;100.00
9289;BME280;4683;50.864;12.086;2024-02-16T02:00:03;99021.72;;;11.32;100.00
9289;BME280;4683;50.864;12.086;2024-02-16T02:02:35;99015.06;;;11.36;100.00
9289;BME280;4683;50.864;12.086;2024-02-16T02:05:05;99008.56;;;11.39;100.00
9289;BME280;4683;50.864;12.086;2024-02-16T02:07:34;99002.47;;;11.38;100.00
9289;BME280;4683;50.864;12.086;2024-02-16T02:10:07;99004.94;;;11.40;100.00
9289;BME280;4683;50.864;12.086;2024-02-16T02:12:40;99000.47;;;11.40;100.00
9289;BME280;4683;50.864;12.086;2024-02-16T02:15:10;98998.81;;;11.39;100.00
9289;BME280;4683;50.864;12.086;2024-02-16T02:17:40;99000.09;;;11.43;100.00
9289;BME280;4683;50.864;12.086;2024-02-16T02:20:10;99008.25;;;11.49;100.00
9289;BME280;4683;50.864;12.086;2024-02-16T02:22:42;99000.53;;;11.47;100.00
9289;BME280;4683;50.864;12.086;2024-02-16T02:25:15;98998.53;;;11.49;100.00
9289;BME280;4683;50.864;12.086;2024-02-16T02:27:45;98995.69;;;11.51;100.00
9289;BME280;4683;50.864;12.086;2024-02-16T02:30:14;98998.59;;;11.56;100.00
9289;BME280;4683;50.864;12.086;2024-02-16T02:32:46;98990.31;;;11.59;100.00
9289;BME280;4683;50.864;12.086;2024-02-16T02:35:16;98994.94;;;11.57;100.00
9289;BME280;4683;50.864;12.086;2024-02-16T02:37:48;98990.66;;;11.56;100.00
9289;BME280;4683;50.864;12.086;2024-02-16T02:40:19;98988.41;;;11.53;100.00
9289;BME280;4683;50.864;12.086;2024-02-16T02:42:47;98993.06;;;11.51;100.00
9289;BME280;4683;50.864;12.086;2024-02-16T02:45:15;98984.94;;;11.52;100.00
9289;BME280;4683;50.864;12.086;2024-02-16T02:47:44;98988.78;;;11.50;100.00
9289;BME280;4683;50.864;12.086;2024-02-16T02:50:13;98985.13;;;11.51;100.00
9289;BME280;4683;50.864;12.086;2024-02-16T02:52:41;98987.13;;;11.49;100.00
9289;BME280;4683;50.864;12.086;2024-02-16T02:55:13;98987.53;;;11.46;100.00
9289;BME280;4683;50.864;12.086;2024-02-16T02:57:42;98981.22;;;11.47;100.00
9289;BME280;4683;50.864;12.086;2024-02-16T03:00:11;98969.41;;;11.42;100.00
9289;BME280;4683;50.864;12.086;2024-02-16T03:02:41;98967.13;;;11.39;100.00
9289;BME280;4683;50.864;12.086;2024-02-16T03:05:10;98962.84;;;11.38;100.00
9289;BME280;4683;50.864;12.086;2024-02-16T03:07:40;98964.06;;;11.36;100.00
9289;BME280;4683;50.864;12.086;2024-02-16T03:10:13;98962.84;;;11.38;100.00
9289;BME280;4683;50.864;12.086;2024-02-16T03:12:48;98967.13;;;11.39;100.00
9289;BME280;4683;50.864;12.086;2024-02-16T03:15:19;98953.34;;;11.44;100.00
9289;BME280;4683;50.864;12.086;2024-02-16T03:17:48;98949.34;;;11.48;100.00
9289;BME280;4683;50.864;12.086;2024-02-16T03:20:16;98950.16;;;11.49;100.00
9289;BME280;4683;50.864;12.086;2024-02-16T03:22:48;98939.22;;;11.52;100.00
9289;BME280;4683;50.864;12.086;2024-02-16T03:25:21;98937.22;;;11.54;100.00
9289;BME280;4683;50.864;12.086;2024-02-16T03:27:50;98931.94;;;11.54;100.00
9289;BME280;4683;50.864;12.086;2024-02-16T03:30:21;98939.22;;;11.52;100.00
9289;BME280;4683;50.864;12.086;2024-02-16T03:32:50;98942.50;;;11.54;100.00
9289;BME280;4683;50.864;12.086;2024-02-16T03:35:19;98944.13;;;11.55;100.00
9289;BME280;4683;50.864;12.086;2024-02-16T03:37:49;98958.34;;;11.54;100.00
9289;BME280;4683;50.864;12.086;2024-02-16T03:40:21;98955.97;;;11.59;100.00
9289;BME280;4683;50.864;12.086;2024-02-16T03:42:51;98961.47;;;11.64;100.00
9289;BME280;4683;50.864;12.086;2024-02-16T03:45:21;98963.94;;;11.65;100.00
9289;BME280;4683;50.864;12.086;2024-02-16T03:47:50;98973.44;;;11.60;100.00
9289;BME280;4683;50.864;12.086;2024-02-16T03:50:23;98970.72;;;11.53;100.00
9289;BME280;4683;50.864;12.086;2024-02-16T03:52:54;98963.63;;;11.54;100.00
9289;BME280;4683;50.864;12.086;2024-02-16T03:55:24;98959.59;;;11.58;100.00
9289;BME280;4683;50.864;12.086;2024-02-16T03:57:52;98960.72;;;11.70;100.00
9289;BME280;4683;50.864;12.086;2024-02-16T04:00:21;98959.38;;;11.81;100.00
9289;BME280;4683;50.864;12.086;2024-02-16T04:02:50;98964.97;;;11.86;100.00
9289;BME280;4683;50.864;12.086;2024-02-16T04:05:20;98971.31;;;11.91;100.00
9289;BME280;4683;50.864;12.086;2024-02-16T04:07:49;98975.38;;;11.94;100.00
9289;BME280;4683;50.864;12.086;2024-02-16T04:10:19;98977.25;;;12.00;100.00
9289;BME280;4683;50.864;12.086;2024-02-16T04:12:49;98979.34;;;12.05;100.00
9289;BME280;4683;50.864;12.086;2024-02-16T04:15:19;98985.63;;;12.04;100.00
9289;BME280;4683;50.864;12.086;2024-02-16T04:17:47;98984.03;;;12.09;100.00
9289;BME280;4683;50.864;12.086;2024-02-16T04:20:17;98980.81;;;12.14;100.00
9289;BME280;4683;50.864;12.086;2024-02-16T04:22:46;98979.59;;;12.16;100.00
9289;BME280;4683;50.864;12.086;2024-02-16T04:25:15;98982.81;;;12.12;100.00
9289;BME280;4683;50.864;12.086;2024-02-16T04:27:45;98985.63;;;12.04;100.00
9289;BME280;4683;50.864;12.086;2024-02-16T04:30:21;98990.41;;;11.93;100.00
9289;BME280;4683;50.864;12.086;2024-02-16T04:32:50;98984.16;;;11.95;100.00
9289;BME280;4683;50.864;12.086;2024-02-16T04:35:21;98999.81;;;11.96;100.00
9289;BME280;4683;50.864;12.086;2024-02-16T04:37:50;98988.00;;;11.99;100.00
9289;BME280;4683;50.864;12.086;2024-02-16T04:40:20;98989.03;;;11.98;100.00
9289;BME280;4683;50.864;12.086;2024-02-16T04:42:49;98988.41;;;11.96;100.00
9289;BME280;4683;50.864;12.086;2024-02-16T04:45:19;98982.25;;;11.88;100.00
9289;BME280;4683;50.864;12.086;2024-02-16T04:47:47;98984.66;;;11.83;100.00
9289;BME280;4683;50.864;12.086;2024-02-16T04:50:16;98975.09;;;11.82;100.00
9289;BME280;4683;50.864;12.086;2024-02-16T04:52:45;98987.81;;;11.79;100.00
9289;BME280;4683;50.864;12.086;2024-02-16T04:55:15;98987.38;;;11.75;100.00
9289;BME280;4683;50.864;12.086;2024-02-16T04:57:44;98991.03;;;11.74;100.00
9289;BME280;4683;50.864;12.086;2024-02-16T05:00:14;98995.63;;;11.65;100.00
9289;BME280;4683;50.864;12.086;2024-02-16T05:02:46;98997.31;;;11.52;100.00
9289;BME280;4683;50.864;12.086;2024-02-16T05:05:15;98992.69;;;11.54;100.00
9289;BME280;4683;50.864;12.086;2024-02-16T05:07:48;98990.31;;;11.59;100.00
9289;BME280;4683;50.864;12.086;2024-02-16T05:10:17;98986.44;;;11.61;100.00
9289;BME280;4683;50.864;12.086;2024-02-16T05:12:47;98982.88;;;11.69;100.00
9289;BME280;4683;50.864;12.086;2024-02-16T05:15:16;98974.16;;;11.75;100.00
9289;BME280;4683;50.864;12.086;2024-02-16T05:17:49;98960.78;;;11.77;100.00
9289;BME280;4683;50.864;12.086;2024-02-16T05:20:19;98957.28;;;11.76;100.00
9289;BME280;4683;50.864;12.086;2024-02-16T05:22:52;98965.78;;;11.72;100.00
9289;BME280;4683;50.864;12.086;2024-02-16T05:25:25;98968.66;;;11.70;100.00
9289;BME280;4683;50.864;12.086;2024-02-16T05:27:55;98969.66;;;11.69;100.00
9289;BME280;4683;50.864;12.086;2024-02-16T05:30:24;98961.28;;;11.65;100.00
9289;BME280;4683;50.864;12.086;2024-02-16T05:32:54;98959.47;;;11.66;100.00
9289;BME280;4683;50.864;12.086;2024-02-16T05:35:26;98953.13;;;11.60;100.00
9289;BME280;4683;50.864;12.086;2024-02-16T05:38:01;98961.25;;;11.59;100.00
9289;BME280;4683;50.864;12.086;2024-02-16T05:40:36;98965.31;;;11.61;100.00
9289;BME280;4683;50.864;12.086;2024-02-16T05:43:21;98954.94;;;11.60;100.00
9289;BME280;4683;50.864;12.086;2024-02-16T05:45:50;98952.09;;;11.61;100.00
9289;BME280;4683;50.864;12.086;2024-02-16T05:48:22;98951.09;;;11.62;100.00
9289;BME280;4683;50.864;12.086;2024-02-16T05:50:51;98944.38;;;11.60;100.00
9289;BME280;4683;50.864;12.086;2024-02-16T05:53:20;98952.66;;;11.57;100.00
9289;BME280;4683;50.864;12.086;2024-02-16T05:55:50;98959.97;;;11.55;100.00
9289;BME280;4683;50.864;12.086;2024-02-16T05:58:20;98951.09;;;11.62;100.00
9289;BME280;4683;50.864;12.086;2024-02-16T06:00:54;98967.38;;;11.66;100.00
9289;BME280;4683;50.864;12.086;2024-02-16T06:03:26;98962.75;;;11.68;100.00
9289;BME280;4683;50.864;12.086;2024-02-16T06:05:55;98974.97;;;11.76;100.00
9289;BME280;4683;50.864;12.086;2024-02-16T06:08:24;98977.88;;;11.81;100.00
9289;BME280;4683;50.864;12.086;2024-02-16T06:10:54;98976.72;;;11.83;100.00
9289;BME280;4683;50.864;12.086;2024-02-16T06:17:30;98979.97;;;11.85;100.00
9289;BME280;4683;50.864;12.086;2024-02-16T06:20:05;98988.75;;;11.86;100.00
9289;BME280;4683;50.864;12.086;2024-02-16T06:22:36;98995.47;;;11.88;100.00
9289;BME280;4683;50.864;12.086;2024-02-16T06:25:08;98995.22;;;11.83;100.00
9289;BME280;4683;50.864;12.086;2024-02-16T06:27:38;99004.16;;;11.82;100.00
9289;BME280;4683;50.864;12.086;2024-02-16T06:30:08;99005.31;;;11.80;100.00
9289;BME280;4683;50.864;12.086;2024-02-16T06:32:41;99000.50;;;11.83;100.00
9289;BME280;4683;50.864;12.086;2024-02-16T06:35:11;99007.50;;;11.91;100.00
9289;BME280;4683;50.864;12.086;2024-02-16T06:37:39;99011.19;;;11.97;100.00
9289;BME280;4683;50.864;12.086;2024-02-16T06:40:09;99006.34;;;12.00;100.00
9289;BME280;4683;50.864;12.086;2024-02-16T06:42:38;99018.34;;;12.03;100.00
9289;BME280;4683;50.864;12.086;2024-02-16T06:45:09;99007.16;;;12.01;100.00
9289;BME280;4683;50.864;12.086;2024-02-16T06:47:50;99010.56;;;11.95;100.00
9289;BME280;4683;50.864;12.086;2024-02-16T06:50:28;99003.22;;;11.90;100.00
9289;BME280;4683;50.864;12.086;2024-02-16T06:53:01;99016.00;;;11.86;100.00
9289;BME280;4683;50.864;12.086;2024-02-16T06:55:34;99013.88;;;11.82;100.00
9289;BME280;4683;50.864;12.086;2024-02-16T06:58:07;99011.41;;;11.80;100.00
9289;BME280;4683;50.864;12.086;2024-02-16T07:00:36;99007.03;;;11.87;100.00
9289;BME280;4683;50.864;12.086;2024-02-16T07:03:05;99010.75;;;11.93;100.00
9289;BME280;4683;50.864;12.086;2024-02-16T07:05:36;99014.88;;;12.02;100.00
9289;BME280;4683;50.864;12.086;2024-02-16T07:08:07;99013.31;;;12.08;100.00
9289;BME280;4683;50.864;12.086;2024-02-16T07:10:35;99010.94;;;12.13;100.00
9289;BME280;4683;50.864;12.086;2024-02-16T07:13:05;99023.16;;;12.21;100.00
9289;BME280;4683;50.864;12.086;2024-02-16T07:15:33;99011.88;;;12.33;100.00
9289;BME280;4683;50.864;12.086;2024-02-16T07:18:04;99018.78;;;12.34;100.00
9289;BME280;4683;50.864;12.086;2024-02-16T07:20:33;99016.78;;;12.36;100.00
9289;BME280;4683;50.864;12.086;2024-02-16T07:23:08;99011.50;;;12.36;100.00
9289;BME280;4683;50.864;12.086;2024-02-16T07:25:39;99009.53;;;12.45;100.00
9289;BME280;4683;50.864;12.086;2024-02-16T07:28:09;99005.13;;;12.59;100.00
9289;BME280;4683;50.864;12.086;2024-02-16T07:30:37;98998.44;;;12.63;100.00
9289;BME280;4683;50.864;12.086;2024-02-16T07:33:07;98990.31;;;12.71;100.00
9289;BME280;4683;50.864;12.086;2024-02-16T07:35:36;98986.03;;;12.70;100.00
9289;BME280;4683;50.864;12.086;2024-02-16T07:38:09;98984.03;;;12.72;100.00
9289;BME280;4683;50.864;12.086;2024-02-16T07:40:40;98976.69;;;12.74;100.00
9289;BME280;4683;50.864;12.086;2024-02-16T07:43:09;98984.88;;;12.79;100.00
9289;BME280;4683;50.864;12.086;2024-02-16T07:45:42;98973.50;;;12.85;100.00
9289;BME280;4683;50.864;12.086;2024-02-16T07:48:11;98981.47;;;12.99;100.00
9289;BME280;4683;50.864;12.086;2024-02-16T07:50:39;98987.84;;;13.04;100.00
9289;BME280;4683;50.864;12.086;2024-02-16T07:53:10;98980.88;;;12.97;100.00
9289;BME280;4683;50.864;12.086;2024-02-16T07:55:41;98975.94;;;12.87;100.00
9289;BME280;4683;50.864;12.086;2024-02-16T07:58:20;98977.78;;;12.86;100.00
9289;BME280;4683;50.864;12.086;2024-02-16T08:00:49;98983.47;;;12.83;100.00
9289;BME280;4683;50.864;12.086;2024-02-16T08:03:18;98980.81;;;12.83;100.00
9289;BME280;4683;50.864;12.086;2024-02-16T08:05:48;98987.72;;;12.84;100.00
9289;BME280;4683;50.864;12.086;2024-02-16T08:08:19;98975.56;;;12.90;100.00
9289;BME280;4683;50.864;12.086;2024-02-16T08:10:55;98979.28;;;13.09;100.00
9289;BME280;4683;50.864;12.086;2024-02-16T08:13:47;98986.66;;;13.20;100.00
9289;BME280;4683;50.864;12.086;2024-02-16T08:16:19;98988.16;;;13.36;100.00
9289;BME280;4683;50.864;12.086;2024-02-16T08:19:02;98992.88;;;13.40;100.00
9289;BME280;4683;50.864;12.086;2024-02-16T08:21:30;98986.94;;;13.38;100.00
9289;BME280;4683;50.864;12.086;2024-02-16T08:24:02;98993.69;;;13.48;100.00
9289;BME280;4683;50.864;12.086;2024-02-16T08:26:32;98990.84;;;13.49;100.00
9289;BME280;4683;50.864;12.086;2024-02-16T08:29:01;98994.09;;;13.51;100.00
9289;BME280;4683;50.864;12.086;2024-02-16T08:31:32;98995.72;;;13.52;100.00
9289;BME280;4683;50.864;12.086;2024-02-16T08:34:03;99002.28;;;13.63;100.00
9289;BME280;4683;50.864;12.086;2024-02-16T08:36:34;98998.19;;;13.67;100.00
9289;BME280;4683;50.864;12.086;2024-02-16T08:39:04;98999.22;;;13.59;100.00
9289;BME280;4683;50.864;12.086;2024-02-16T08:41:33;98996.53;;;13.53;100.00
9289;BME280;4683;50.864;12.086;2024-02-16T08:44:01;98996.16;;;13.56;100.00
9289;BME280;4683;50.864;12.086;2024-02-16T08:46:30;99000.44;;;13.70;100.00
9289;BME280;4683;50.864;12.086;2024-02-16T08:48:59;98998.44;;;13.72;100.00
9289;BME280;4683;50.864;12.086;2024-02-16T08:51:27;98992.09;;;13.73;100.00
9289;BME280;4683;50.864;12.086;2024-02-16T08:53:57;98993.94;;;13.79;100.00
9289;BME280;4683;50.864;12.086;2024-02-16T08:56:30;98992.91;;;13.80;100.00
9289;BME280;4683;50.864;12.086;2024-02-16T08:58:59;98995.56;;;13.74;100.00
9289;BME280;4683;50.864;12.086;2024-02-16T09:01:31;98989.03;;;13.76;100.00
9289;BME280;4683;50.864;12.086;2024-02-16T09:04:00;99004.75;;;13.78;100.00
9289;BME280;4683;50.864;12.086;2024-02-16T09:06:28;99003.13;;;13.90;100.00
9289;BME280;4683;50.864;12.086;2024-02-16T09:08:56;99003.94;;;14.04;100.00
9289;BME280;4683;50.864;12.086;2024-02-16T09:11:30;99002.50;;;14.28;100.00
9289;BME280;4683;50.864;12.086;2024-02-16T09:13:59;98999.03;;;14.27;100.00
9289;BME280;4683;50.864;12.086;2024-02-16T09:16:29;98995.94;;;14.30;100.00
9289;BME280;4683;50.864;12.086;2024-02-16T09:18:59;99004.34;;;14.27;100.00
9289;BME280;4683;50.864;12.086;2024-02-16T09:21:28;99005.75;;;14.30;100.00
9289;BME280;4683;50.864;12.086;2024-02-16T09:23:57;99000.84;;;14.33;100.00
9289;BME280;4683;50.864;12.086;2024-02-16T09:26:30;99000.44;;;14.36;100.00
9289;BME280;4683;50.864;12.086;2024-02-16T09:29:00;99003.72;;;14.52;100.00
9289;BME280;4683;50.864;12.086;2024-02-16T09:31:30;98999.84;;;14.54;100.00
9289;BME280;4683;50.864;12.086;2024-02-16T09:33:58;98995.34;;;14.55;100.00
9289;BME280;4683;50.864;12.086;2024-02-16T09:36:31;99007.94;;;14.79;100.00
9289;BME280;4683;50.864;12.086;2024-02-16T09:39:02;99007.34;;;14.77;100.00
9289;BME280;4683;50.864;12.086;2024-02-16T09:41:35;99009.56;;;14.80;100.00
9289;BME280;4683;50.864;12.086;2024-02-16T09:44:05;98999.91;;;14.99;100.00
9289;BME280;4683;50.864;12.086;2024-02-16T09:46:34;98994.72;;;15.11;100.00
9289;BME280;4683;50.864;12.086;2024-02-16T09:49:04;98997.91;;;15.33;100.00
9289;BME280;4683;50.864;12.086;2024-02-16T09:51:39;98994.44;;;15.26;100.00
9289;BME280;4683;50.864;12.086;2024-02-16T09:54:10;98989.06;;;15.39;100.00
9289;BME280;4683;50.864;12.086;2024-02-16T09:56:43;98984.84;;;15.31;100.00
9289;BME280;4683;50.864;12.086;2024-02-16T09:59:14;98996.84;;;15.40;100.00
9289;BME280;4683;50.864;12.086;2024-02-16T10:01:43;99003.16;;;15.39;100.00
9289;BME280;4683;50.864;12.086;2024-02-16T10:04:12;99002.75;;;15.04;100.00
9289;BME280;4683;50.864;12.086;2024-02-16T10:06:48;98998.88;;;15.00;100.00
9289;BME280;4683;50.864;12.086;2024-02-16T10:09:24;99009.69;;;14.98;100.00
9289;BME280;4683;50.864;12.086;2024-02-16T10:11:56;99003.38;;;15.00;100.00
9289;BME280;4683;50.864;12.086;2024-02-16T10:14:25;99005.00;;;14.94;100.00
9289;BME280;4683;50.864;12.086;2024-02-16T10:17:05;99010.19;;;14.82;100.00
9289;BME280;4683;50.864;12.086;2024-02-16T10:19:37;99007.75;;;14.74;100.00
9289;BME280;4683;50.864;12.086;2024-02-16T10:22:09;99003.88;;;14.77;100.00
9289;BME280;4683;50.864;12.086;2024-02-16T10:24:40;99011.63;;;14.78;100.00
9289;BME280;4683;50.864;12.086;2024-02-16T10:27:19;99014.06;;;14.80;100.00
9289;BME280;4683;50.864;12.086;2024-02-16T10:29:49;99003.38;;;15.00;100.00
9289;BME280;4683;50.864;12.086;2024-02-16T10:32:23;99005.38;;;15.11;100.00
9289;BME280;4683;50.864;12.086;2024-02-16T10:34:52;99007.44;;;15.09;100.00
9289;BME280;4683;50.864;12.086;2024-02-16T10:37:23;98996.53;;;15.23;100.00
9289;BME280;4683;50.864;12.086;2024-02-16T10:39:54;98997.56;;;15.16;100.00
9289;BME280;4683;50.864;12.086;2024-02-16T10:42:28;98996.09;;;15.27;100.00
9289;BME280;4683;50.864;12.086;2024-02-16T10:45:00;98991.94;;;15.37;100.00
9289;BME280;4683;50.864;12.086;2024-02-16T10:47:29;98988.88;;;15.40;100.00
9289;BME280;4683;50.864;12.086;2024-02-16T10:49:58;98991.44;;;15.54;100.00
9289;BME280;4683;50.864;12.086;2024-02-16T10:52:29;98993.59;;;15.70;100.00
9289;BME280;4683;50.864;12.086;2024-02-16T10:54:59;98992.78;;;15.69;100.00
9289;BME280;4683;50.864;12.086;2024-02-16T10:57:30;98998.44;;;15.80;100.00
9289;BME280;4683;50.864;12.086;2024-02-16T11:00:00;98997.53;;;15.92;100.00
9289;BME280;4683;50.864;12.086;2024-02-16T11:02:31;98992.84;;;15.94;100.00
9289;BME280;4683;50.864;12.086;2024-02-16T11:05:00;98993.47;;;15.90;100.00
9289;BME280;4683;50.864;12.086;2024-02-16T11:07:36;98997.97;;;15.89;100.00
9289;BME280;4683;50.864;12.086;2024-02-16T11:10:12;98992.59;;;15.96;100.00
9289;BME280;4683;50.864;12.086;2024-02-16T11:12:45;98990.50;;;16.05;100.00
9289;BME280;4683;50.864;12.086;2024-02-16T11:15:14;98995.75;;;16.11;100.00
9289;BME280;4683;50.864;12.086;2024-02-16T11:17:42;99007.53;;;16.22;100.00
9289;BME280;4683;50.864;12.086;2024-02-16T11:20:13;99001.34;;;16.28;100.00
9289;BME280;4683;50.864;12.086;2024-02-16T11:22:42;99006.81;;;16.33;100.00
9289;BME280;4683;50.864;12.086;2024-02-16T11:25:11;99013.31;;;16.37;100.00
9289;BME280;4683;50.864;12.086;2024-02-16T11:27:40;99009.34;;;16.46;100.00
9289;BME280;4683;50.864;12.086;2024-02-16T11:30:14;99009.06;;;16.55;100.00
9289;BME280;4683;50.864;12.086;2024-02-16T11:32:43;99013.44;;;16.49;100.00
9289;BME280;4683;50.864;12.086;2024-02-16T11:35:14;99010.38;;;16.45;100.00
9289;BME280;4683;50.864;12.086;2024-02-16T11:37:44;99013.47;;;16.42;100.00
9289;BME280;4683;50.864;12.086;2024-02-16T11:40:13;99011.09;;;16.34;100.00
9289;BME280;4683;50.864;12.086;2024-02-16T11:42:42;99012.44;;;16.43;100.00
9289;BME280;4683;50.864;12.086;2024-02-16T11:45:16;99009.66;;;16.57;100.00
9289;BME280;4683;50.864;12.086;2024-02-16T11:47:45;99013.34;;;16.56;100.00
9289;BME280;4683;50.864;12.086;2024-02-16T11:50:14;99010.53;;;16.51;100.00
9289;BME280;4683;50.864;12.086;2024-02-16T11:52:44;99011.78;;;16.48;100.00
9289;BME280;4683;50.864;12.086;2024-02-16T11:55:16;99016.28;;;16.47;100.00
9289;BME280;4683;50.864;12.086;2024-02-16T11:57:46;99010.03;;;16.60;100.00
9289;BME280;4683;50.864;12.086;2024-02-16T12:00:21;99010.06;;;16.79;100.00
9289;BME280;4683;50.864;12.086;2024-02-16T12:03:00;99005.84;;;16.89;100.00
9289;BME280;4683;50.864;12.086;2024-02-16T12:05:29;99011.16;;;17.08;100.00
9289;BME280;4683;50.864;12.086;2024-02-16T12:07:58;99004.28;;;17.00;100.00
9289;BME280;4683;50.864;12.086;2024-02-16T12:10:28;99004.69;;;16.85;100.00
9289;BME280;4683;50.864;12.086;2024-02-16T12:12:59;99000.75;;;16.88;100.00
9289;BME280;4683;50.864;12.086;2024-02-16T12:15:31;98999.94;;;16.87;100.00
9289;BME280;4683;50.864;12.086;2024-02-16T12:18:01;99004.34;;;16.93;100.00
9289;BME280;4683;50.864;12.086;2024-02-16T12:20:33;99008.19;;;17.16;100.00
9289;BME280;4683;50.864;12.086;2024-02-16T12:23:12;99002.78;;;17.22;100.00
9289;BME280;4683;50.864;12.086;2024-02-16T12:25:43;98994.09;;;17.27;100.00
9289;BME280;4683;50.864;12.086;2024-02-16T12:28:13;98997.47;;;17.34;100.00
9289;BME280;4683;50.864;12.086;2024-02-16T12:30:44;99004.59;;;17.40;100.00
9289;BME280;4683;50.864;12.086;2024-02-16T12:33:12;98996.81;;;17.39;100.00
9289;BME280;4683;50.864;12.086;2024-02-16T12:35:43;99004.97;;;17.25;100.00
9289;BME280;4683;50.864;12.086;2024-02-16T12:38:15;98996.16;;;17.25;100.00
9289;BME280;4683;50.864;12.086;2024-02-16T12:40:48;98994.09;;;17.27;100.00
9289;BME280;4683;50.864;12.086;2024-02-16T12:43:18;98990.53;;;17.33;100.00
9289;BME280;4683;50.864;12.086;2024-02-16T12:45:52;98979.16;;;17.08;100.00
9289;BME280;4683;50.864;12.086;2024-02-16T12:48:20;98993.16;;;17.21;100.00
9289;BME280;4683;50.864;12.086;2024-02-16T12:50:49;98984.25;;;17.28;100.00
9289;BME280;4683;50.864;12.086;2024-02-16T12:53:20;98988.03;;;17.20;100.00
9289;BME280;4683;50.864;12.086;2024-02-16T12:55:51;98994.31;;;17.25;100.00
9289;BME280;4683;50.864;12.086;2024-02-16T12:58:21;99002.38;;;17.37;100.00
9289;BME280;4683;50.864;12.086;2024-02-16T13:00:52;99005.44;;;17.22;100.00
9289;BME280;4683;50.864;12.086;2024-02-16T13:03:20;99001.06;;;17.28;100.00
9289;BME280;4683;50.864;12.086;2024-02-16T13:05:49;99003.00;;;17.21;100.00
9289;BME280;4683;50.864;12.086;2024-02-16T13:08:20;99000.63;;;17.31;100.00
9289;BME280;4683;50.864;12.086;2024-02-16T13:10:50;99003.06;;;17.33;100.00
9289;BME280;4683;50.864;12.086;2024-02-16T13:13:19;99004.00;;;17.38;100.00
9289;BME280;4683;50.864;12.086;2024-02-16T13:15:50;99014.25;;;17.23;100.00
9289;BME280;4683;50.864;12.086;2024-02-16T13:18:20;99005.81;;;17.26;100.00
9289;BME280;4683;50.864;12.086;2024-02-16T13:20:48;99003.16;;;17.26;100.00
9289;BME280;4683;50.864;12.086;2024-02-16T13:23:16;99001.06;;;17.28;100.00